sensor_id;sensor_type;location;lat;lon;timestamp;pressure;altitude;pressure_sealevel;temperature;humidity
21234;BME280;10774;42.178;26.578;2023-04-23T00:00:39;100095.47;;;9.62;100.00
21234;BME280;10774;42.178;26.578;2023-04-23T00:03:07;100113.16;;;8.86;100.00
21234;BME280;10774;42.178;26.578;2023-04-23T00:05:34;100090.53;;;8.06;100.00
21234;BME280;10774;42.178;26.578;2023-04-23T00:08:01;100116.84;;;8.50;100.00
21234;BME280;10774;42.178;26.578;2023-04-23T00:10:26;100117.91;;;8.63;100.00
21234;BME280;10774;42.178;26.578;2023-04-23T00:12:52;100123.75;;;8.20;100.00
21234;BME280;10774;42.178;26.578;2023-04-23T00:15:18;100117.44;;;8.03;100.00
21234;BME280;10774;42.178;26.578;2023-04-23T00:17:46;100108.63;;;8.01;100.00
21234;BME280;10774;42.178;26.578;2023-04-23T00:20:12;100118.78;;;7.95;100.00
21234;BME280;10774;42.178;26.578;2023-04-23T00:22:38;100109.72;;;7.80;100.00
21234;BME280;10774;42.178;26.578;2023-04-23T00:25:04;100121.84;;;8.22;100.00
21234;BME280;10774;42.178;26.578;2023-04-23T00:27:29;100096.88;;;8.40;100.00
21234;BME280;10774;42.178;26.578;2023-04-23T00:29:55;100122.06;;;8.69;100.00
21234;BME280;10774;42.178;26.578;2023-04-23T00:32:20;100108.09;;;8.80;100.00
21234;BME280;10774;42.178;26.578;2023-04-23T00:34:47;100121.94;;;8.88;100.00
21234;BME280;10774;42.178;26.578;2023-04-23T00:37:16;100102.13;;;8.75;100.00
21234;BME280;10774;42.178;26.578;2023-04-23T00:39:42;100108.91;;;8.82;100.00
21234;BME280;10774;42.178;26.578;2023-04-23T00:42:07;100124.91;;;8.99;100.00
21234;BME280;10774;42.178;26.578;2023-04-23T00:44:37;100108.41;;;9.07;100.00
21234;BME280;10774;42.178;26.578;2023-04-23T00:47:04;100119.66;;;8.98;100.00
21234;BME280;10774;42.178;26.578;2023-04-23T00:49:30;100125.06;;;8.96;100.00
21234;BME280;10774;42.178;26.578;2023-04-23T00:51:56;100110.16;;;8.75;100.00
21234;BME280;10774;42.178;26.578;2023-04-23T00:54:21;100134.56;;;8.86;100.00
21234;BME280;10774;42.178;26.578;2023-04-23T00:56:48;100124.38;;;8.42;100.00
21234;BME280;10774;42.178;26.578;2023-04-23T00:59:14;100136.25;;;8.54;100.00
21234;BME280;10774;42.178;26.578;2023-04-23T01:01:40;100119.66;;;8.30;100.00
21234;BME280;10774;42.178;26.578;2023-04-23T01:04:06;100120.47;;;8.49;100.00
21234;BME280;10774;42.178;26.578;2023-04-23T01:06:35;100120.34;;;8.68;100.00
21234;BME280;10774;42.178;26.578;2023-04-23T01:09:00;100120.19;;;8.71;100.00
21234;BME280;10774;42.178;26.578;2023-04-23T01:11:27;100132.53;;;8.74;100.00
21234;BME280;10774;42.178;26.578;2023-04-23T01:13:55;100115.22;;;8.63;100.00
21234;BME280;10774;42.178;26.578;2023-04-23T01:16:20;100118.75;;;8.81;100.00
21234;BME280;10774;42.178;26.578;2023-04-23T01:18:46;100133.31;;;8.76;100.00
21234;BME280;10774;42.178;26.578;2023-04-23T01:21:11;100132.28;;;8.78;100.00
21234;BME280;10774;42.178;26.578;2023-04-23T01:23:39;100121.63;;;8.61;100.00
21234;BME280;10774;42.178;26.578;2023-04-23T01:26:05;100112.03;;;8.57;100.00
21234;BME280;10774;42.178;26.578;2023-04-23T01:28:31;100128.31;;;8.35;100.00
21234;BME280;10774;42.178;26.578;2023-04-23T01:30:58;100140.97;;;8.49;100.00
21234;BME280;10774;42.178;26.578;2023-04-23T01:33:24;100129.25;;;8.34;100.00
21234;BME280;10774;42.178;26.578;2023-04-23T01:35:50;100124.63;;;8.37;100.00
21234;BME280;10774;42.178;26.578;2023-04-23T01:38:16;100120.50;;;8.30;100.00
21234;BME280;10774;42.178;26.578;2023-04-23T01:40:42;100122.72;;;8.57;100.00
21234;BME280;10774;42.178;26.578;2023-04-23T01:43:08;100137.75;;;8.25;100.00
21234;BME280;10774;42.178;26.578;2023-04-23T01:45:34;100131.13;;;8.15;100.00
21234;BME280;10774;42.178;26.578;2023-04-23T01:47:59;100120.91;;;8.05;100.00
21234;BME280;10774;42.178;26.578;2023-04-23T01:50:25;100120.84;;;8.07;100.00
21234;BME280;10774;42.178;26.578;2023-04-23T01:52:52;100138.53;;;8.09;100.00
21234;BME280;10774;42.178;26.578;2023-04-23T01:55:17;100125.88;;;7.59;100.00
21234;BME280;10774;42.178;26.578;2023-04-23T01:57:46;100130.09;;;7.82;100.00
21234;BME280;10774;42.178;26.578;2023-04-23T02:00:14;100141.19;;;7.92;100.00
21234;BME280;10774;42.178;26.578;2023-04-23T02:02:41;100144.50;;;7.97;100.00
21234;BME280;10774;42.178;26.578;2023-04-23T02:05:11;100144.03;;;8.24;100.00
21234;BME280;10774;42.178;26.578;2023-04-23T02:07:37;100154.25;;;8.16;100.00
21234;BME280;10774;42.178;26.578;2023-04-23T02:10:03;100140.72;;;8.19;100.00
21234;BME280;10774;42.178;26.578;2023-04-23T02:12:29;100131.44;;;8.08;100.00
21234;BME280;10774;42.178;26.578;2023-04-23T02:14:55;100129.72;;;8.07;100.00
21234;BME280;10774;42.178;26.578;2023-04-23T02:17:20;100145.44;;;8.13;100.00
21234;BME280;10774;42.178;26.578;2023-04-23T02:19:47;100131.03;;;8.16;100.00
21234;BME280;10774;42.178;26.578;2023-04-23T02:22:13;100144.19;;;8.21;100.00
21234;BME280;10774;42.178;26.578;2023-04-23T02:24:39;100134.75;;;8.13;100.00
21234;BME280;10774;42.178;26.578;2023-04-23T02:27:06;100144.03;;;8.24;100.00
21234;BME280;10774;42.178;26.578;2023-04-23T02:29:32;100128.06;;;8.05;100.00
21234;BME280;10774;42.178;26.578;2023-04-23T02:31:57;100145.28;;;8.17;100.00
21234;BME280;10774;42.178;26.578;2023-04-23T02:34:23;100143.16;;;8.06;100.00
21234;BME280;10774;42.178;26.578;2023-04-23T02:36:48;100116.81;;;7.81;100.00
21234;BME280;10774;42.178;26.578;2023-04-23T02:39:14;100120.41;;;7.80;100.00
21234;BME280;10774;42.178;26.578;2023-04-23T02:41:40;100150.16;;;7.91;100.00
21234;BME280;10774;42.178;26.578;2023-04-23T02:44:05;100126.63;;;7.25;100.00
21234;BME280;10774;42.178;26.578;2023-04-23T02:46:31;100134.91;;;7.57;100.00
21234;BME280;10774;42.178;26.578;2023-04-23T02:48:57;100132.41;;;7.35;100.00
21234;BME280;10774;42.178;26.578;2023-04-23T02:51:22;100149.94;;;7.41;100.00
21234;BME280;10774;42.178;26.578;2023-04-23T02:53:48;100150.25;;;6.95;100.00
21234;BME280;10774;42.178;26.578;2023-04-23T02:56:13;100161.84;;;7.15;100.00
21234;BME280;10774;42.178;26.578;2023-04-23T02:58:39;100144.16;;;7.31;100.00
21234;BME280;10774;42.178;26.578;2023-04-23T03:01:05;100142.06;;;7.19;100.00
21234;BME280;10774;42.178;26.578;2023-04-23T03:03:31;100144.44;;;7.25;100.00
21234;BME280;10774;42.178;26.578;2023-04-23T03:05:57;100160.34;;;7.28;100.00
21234;BME280;10774;42.178;26.578;2023-04-23T03:08:23;100160.75;;;7.38;100.00
21234;BME280;10774;42.178;26.578;2023-04-23T03:10:49;100149.50;;;7.31;100.00
21234;BME280;10774;42.178;26.578;2023-04-23T03:13:14;100172.38;;;7.37;100.00
21234;BME280;10774;42.178;26.578;2023-04-23T03:15:40;100144.31;;;7.28;100.00
21234;BME280;10774;42.178;26.578;2023-04-23T03:18:05;100163.78;;;7.49;100.00
21234;BME280;10774;42.178;26.578;2023-04-23T03:20:33;100155.13;;;7.25;100.00
21234;BME280;10774;42.178;26.578;2023-04-23T03:22:58;100161.34;;;7.44;100.00
21234;BME280;10774;42.178;26.578;2023-04-23T03:25:24;100155.34;;;7.39;100.00
21234;BME280;10774;42.178;26.578;2023-04-23T03:27:50;100180.94;;;7.43;100.00
21234;BME280;10774;42.178;26.578;2023-04-23T03:30:16;100168.25;;;7.48;100.00
21234;BME280;10774;42.178;26.578;2023-04-23T03:32:41;100146.03;;;7.29;100.00
21234;BME280;10774;42.178;26.578;2023-04-23T03:35:07;100167.41;;;7.29;100.00
21234;BME280;10774;42.178;26.578;2023-04-23T03:37:33;100156.44;;;7.35;100.00
21234;BME280;10774;42.178;26.578;2023-04-23T03:39:59;100156.72;;;7.29;100.00
21234;BME280;10774;42.178;26.578;2023-04-23T03:42:27;100181.53;;;7.31;100.00
21234;BME280;10774;42.178;26.578;2023-04-23T03:44:53;100187.75;;;7.13;100.00
21234;BME280;10774;42.178;26.578;2023-04-23T03:47:18;100184.88;;;7.17;100.00
21234;BME280;10774;42.178;26.578;2023-04-23T03:49:43;100173.41;;;6.76;100.00
21234;BME280;10774;42.178;26.578;2023-04-23T03:52:09;100171.84;;;6.91;100.00
21234;BME280;10774;42.178;26.578;2023-04-23T03:54:34;100173.91;;;6.84;100.00
21234;BME280;10774;42.178;26.578;2023-04-23T03:56:59;100198.38;;;6.53;100.00
21234;BME280;10774;42.178;26.578;2023-04-23T03:59:26;100200.13;;;6.34;100.00
21234;BME280;10774;42.178;26.578;2023-04-23T04:01:51;100177.81;;;6.57;100.00
21234;BME280;10774;42.178;26.578;2023-04-23T04:04:16;100194.34;;;6.44;100.00
21234;BME280;10774;42.178;26.578;2023-04-23T04:06:42;100205.81;;;6.67;100.00
21234;BME280;10774;42.178;26.578;2023-04-23T04:09:07;100183.81;;;6.62;100.00
21234;BME280;10774;42.178;26.578;2023-04-23T04:11:33;100206.59;;;6.69;100.00
21234;BME280;10774;42.178;26.578;2023-04-23T04:13:59;100206.47;;;6.51;100.00
21234;BME280;10774;42.178;26.578;2023-04-23T04:16:24;100200.84;;;6.58;100.00
21234;BME280;10774;42.178;26.578;2023-04-23T04:18:50;100190.66;;;6.67;100.00
21234;BME280;10774;42.178;26.578;2023-04-23T04:21:15;100182.19;;;6.37;100.00
21234;BME280;10774;42.178;26.578;2023-04-23T04:23:44;100197.94;;;6.43;100.00
21234;BME280;10774;42.178;26.578;2023-04-23T04:26:10;100200.84;;;6.58;100.00
21234;BME280;10774;42.178;26.578;2023-04-23T04:28:35;100202.84;;;6.12;100.00
21234;BME280;10774;42.178;26.578;2023-04-23T04:31:02;100216.88;;;6.58;100.00
21234;BME280;10774;42.178;26.578;2023-04-23T04:33:29;100203.22;;;6.65;100.00
21234;BME280;10774;42.178;26.578;2023-04-23T04:35:56;100228.13;;;6.64;100.00
21234;BME280;10774;42.178;26.578;2023-04-23T04:38:21;100220.97;;;6.85;100.00
21234;BME280;10774;42.178;26.578;2023-04-23T04:40:46;100188.06;;;6.86;100.00
21234;BME280;10774;42.178;26.578;2023-04-23T04:43:13;100232.28;;;7.31;100.00
21234;BME280;10774;42.178;26.578;2023-04-23T04:45:39;100231.84;;;7.40;100.00
21234;BME280;10774;42.178;26.578;2023-04-23T04:48:04;100228.44;;;7.37;100.00
21234;BME280;10774;42.178;26.578;2023-04-23T04:50:30;100233.38;;;7.65;100.00
21234;BME280;10774;42.178;26.578;2023-04-23T04:52:55;100202.75;;;7.53;100.00
21234;BME280;10774;42.178;26.578;2023-04-23T04:55:21;100227.88;;;7.86;100.00
21234;BME280;10774;42.178;26.578;2023-04-23T04:57:46;100227.16;;;7.83;100.00
21234;BME280;10774;42.178;26.578;2023-04-23T05:00:19;100234.75;;;8.09;100.00
21234;BME280;10774;42.178;26.578;2023-04-23T05:02:50;100240.63;;;8.35;100.00
21234;BME280;10774;42.178;26.578;2023-04-23T05:05:18;100243.13;;;8.21;100.00
21234;BME280;10774;42.178;26.578;2023-04-23T05:07:44;100234.56;;;8.31;100.00
21234;BME280;10774;42.178;26.578;2023-04-23T05:10:10;100221.00;;;8.36;100.00
21234;BME280;10774;42.178;26.578;2023-04-23T05:12:35;100218.50;;;8.50;100.00
21234;BME280;10774;42.178;26.578;2023-04-23T05:15:01;100224.63;;;8.70;100.00
21234;BME280;10774;42.178;26.578;2023-04-23T05:17:28;100227.31;;;8.87;100.00
21234;BME280;10774;42.178;26.578;2023-04-23T05:19:54;100248.38;;;8.93;100.00
21234;BME280;10774;42.178;26.578;2023-04-23T05:22:19;100230.03;;;8.85;100.00
21234;BME280;10774;42.178;26.578;2023-04-23T05:24:45;100246.34;;;8.98;100.00
21234;BME280;10774;42.178;26.578;2023-04-23T05:27:11;100253.38;;;9.34;100.00
21234;BME280;10774;42.178;26.578;2023-04-23T05:29:36;100246.78;;;9.24;100.00
21234;BME280;10774;42.178;26.578;2023-04-23T05:32:01;100248.06;;;8.99;100.00
21234;BME280;10774;42.178;26.578;2023-04-23T05:34:27;100248.31;;;9.28;100.00
21234;BME280;10774;42.178;26.578;2023-04-23T05:36:52;100261.00;;;9.57;100.00
21234;BME280;10774;42.178;26.578;2023-04-23T05:39:18;100244.09;;;9.73;100.00
21234;BME280;10774;42.178;26.578;2023-04-23T05:41:43;100244.78;;;9.92;100.00
21234;BME280;10774;42.178;26.578;2023-04-23T05:44:08;100248.41;;;9.91;100.00
21234;BME280;10774;42.178;26.578;2023-04-23T05:46:34;100257.03;;;9.96;100.00
21234;BME280;10774;42.178;26.578;2023-04-23T05:48:59;100255.69;;;9.89;100.00
21234;BME280;10774;42.178;26.578;2023-04-23T05:51:25;100271.75;;;9.89;100.00
21234;BME280;10774;42.178;26.578;2023-04-23T05:53:51;100269.00;;;10.38;100.00
21234;BME280;10774;42.178;26.578;2023-04-23T05:56:17;100270.19;;;10.48;100.00
21234;BME280;10774;42.178;26.578;2023-04-23T05:58:42;100241.81;;;10.44;100.00
21234;BME280;10774;42.178;26.578;2023-04-23T06:01:08;100255.72;;;10.81;100.00
21234;BME280;10774;42.178;26.578;2023-04-23T06:03:34;100262.94;;;10.50;100.00
21234;BME280;10774;42.178;26.578;2023-04-23T06:06:01;100263.06;;;11.07;100.00
21234;BME280;10774;42.178;26.578;2023-04-23T06:08:26;100257.22;;;11.00;100.00
21234;BME280;10774;42.178;26.578;2023-04-23T06:10:51;100247.75;;;10.79;100.00
21234;BME280;10774;42.178;26.578;2023-04-23T06:13:17;100250.66;;;11.35;100.00
21234;BME280;10774;42.178;26.578;2023-04-23T06:15:42;100253.13;;;11.52;100.00
21234;BME280;10774;42.178;26.578;2023-04-23T06:18:08;100240.94;;;11.46;100.00
21234;BME280;10774;42.178;26.578;2023-04-23T06:20:34;100263.69;;;11.41;100.00
21234;BME280;10774;42.178;26.578;2023-04-23T06:23:00;100262.19;;;10.62;100.00
21234;BME280;10774;42.178;26.578;2023-04-23T06:25:27;100232.16;;;10.26;100.00
21234;BME280;10774;42.178;26.578;2023-04-23T06:27:53;100251.78;;;10.10;100.00
21234;BME280;10774;42.178;26.578;2023-04-23T06:30:18;100257.47;;;10.82;100.00
21234;BME280;10774;42.178;26.578;2023-04-23T06:32:44;100223.94;;;11.03;100.00
21234;BME280;10774;42.178;26.578;2023-04-23T06:35:09;100249.69;;;11.50;100.00
21234;BME280;10774;42.178;26.578;2023-04-23T06:37:35;100258.78;;;11.90;100.00
21234;BME280;10774;42.178;26.578;2023-04-23T06:40:00;100247.81;;;11.79;100.00
21234;BME280;10774;42.178;26.578;2023-04-23T06:42:26;100259.25;;;11.68;100.00
21234;BME280;10774;42.178;26.578;2023-04-23T06:44:51;100244.41;;;11.34;100.00
21234;BME280;10774;42.178;26.578;2023-04-23T06:47:18;100258.31;;;11.84;100.00
21234;BME280;10774;42.178;26.578;2023-04-23T06:49:43;100244.63;;;12.01;100.00
21234;BME280;10774;42.178;26.578;2023-04-23T06:52:09;100241.19;;;11.99;100.00
21234;BME280;10774;42.178;26.578;2023-04-23T06:54:34;100242.38;;;12.22;100.00
21234;BME280;10774;42.178;26.578;2023-04-23T06:57:00;100218.53;;;12.43;100.00
21234;BME280;10774;42.178;26.578;2023-04-23T06:59:25;100247.63;;;12.90;100.00
21234;BME280;10774;42.178;26.578;2023-04-23T07:01:51;100241.31;;;12.24;100.00
21234;BME280;10774;42.178;26.578;2023-04-23T07:04:16;100241.88;;;11.74;100.00
21234;BME280;10774;42.178;26.578;2023-04-23T07:06:41;100242.56;;;11.92;100.00
21234;BME280;10774;42.178;26.578;2023-04-23T07:09:07;100237.06;;;12.47;100.00
21234;BME280;10774;42.178;26.578;2023-04-23T07:11:33;100236.91;;;12.76;100.00
21234;BME280;10774;42.178;26.578;2023-04-23T07:14:00;100241.09;;;13.32;100.00
21234;BME280;10774;42.178;26.578;2023-04-23T07:16:26;100247.34;;;13.20;99.66
21234;BME280;10774;42.178;26.578;2023-04-23T07:18:53;100230.28;;;13.07;98.30
21234;BME280;10774;42.178;26.578;2023-04-23T07:21:19;100242.59;;;13.11;95.25
21234;BME280;10774;42.178;26.578;2023-04-23T07:23:45;100241.81;;;13.60;92.09
21234;BME280;10774;42.178;26.578;2023-04-23T07:26:10;100238.28;;;13.72;85.68
21234;BME280;10774;42.178;26.578;2023-04-23T07:28:36;100242.75;;;13.84;78.42
21234;BME280;10774;42.178;26.578;2023-04-23T07:31:01;100217.81;;;13.31;82.39
21234;BME280;10774;42.178;26.578;2023-04-23T07:33:27;100220.81;;;13.52;84.34
21234;BME280;10774;42.178;26.578;2023-04-23T07:35:53;100216.84;;;13.95;73.02
21234;BME280;10774;42.178;26.578;2023-04-23T07:38:18;100227.84;;;13.92;67.56
21234;BME280;10774;42.178;26.578;2023-04-23T07:40:44;100205.81;;;13.61;68.23
21234;BME280;10774;42.178;26.578;2023-04-23T07:43:09;100219.84;;;13.28;68.29
21234;BME280;10774;42.178;26.578;2023-04-23T07:45:35;100236.19;;;13.89;70.28
21234;BME280;10774;42.178;26.578;2023-04-23T07:48:00;100212.56;;;14.40;69.36
21234;BME280;10774;42.178;26.578;2023-04-23T07:50:26;100225.34;;;14.25;70.65
21234;BME280;10774;42.178;26.578;2023-04-23T07:52:52;100223.84;;;14.69;69.04
21234;BME280;10774;42.178;26.578;2023-04-23T07:55:17;100212.03;;;14.59;65.78
21234;BME280;10774;42.178;26.578;2023-04-23T07:57:44;100223.09;;;14.43;68.27
21234;BME280;10774;42.178;26.578;2023-04-23T08:00:10;100217.69;;;14.43;74.45
21234;BME280;10774;42.178;26.578;2023-04-23T08:02:35;100190.53;;;14.33;77.61
21234;BME280;10774;42.178;26.578;2023-04-23T08:05:01;100197.16;;;14.05;81.06
21234;BME280;10774;42.178;26.578;2023-04-23T08:07:26;100224.81;;;14.57;76.72
21234;BME280;10774;42.178;26.578;2023-04-23T08:09:54;100206.13;;;14.54;75.42
21234;BME280;10774;42.178;26.578;2023-04-23T08:12:19;100197.13;;;14.77;73.13
21234;BME280;10774;42.178;26.578;2023-04-23T08:14:45;100230.34;;;15.13;73.99
21234;BME280;10774;42.178;26.578;2023-04-23T08:17:11;100212.22;;;15.71;72.61
21234;BME280;10774;42.178;26.578;2023-04-23T08:19:37;100222.75;;;16.08;68.42
21234;BME280;10774;42.178;26.578;2023-04-23T08:22:02;100202.13;;;15.84;65.25
21234;BME280;10774;42.178;26.578;2023-04-23T08:24:28;100215.69;;;16.28;66.07
21234;BME280;10774;42.178;26.578;2023-04-23T08:26:53;100197.41;;;16.41;66.57
21234;BME280;10774;42.178;26.578;2023-04-23T08:29:19;100214.94;;;16.58;65.64
21234;BME280;10774;42.178;26.578;2023-04-23T08:31:45;100195.69;;;16.61;64.82
21234;BME280;10774;42.178;26.578;2023-04-23T08:34:10;100202.00;;;16.93;63.29
21234;BME280;10774;42.178;26.578;2023-04-23T08:36:36;100206.41;;;17.15;63.37
21234;BME280;10774;42.178;26.578;2023-04-23T08:39:02;100192.06;;;17.04;61.15
21234;BME280;10774;42.178;26.578;2023-04-23T08:41:34;100218.59;;;17.51;61.71
21234;BME280;10774;42.178;26.578;2023-04-23T08:44:25;100192.50;;;17.70;60.23
21234;BME280;10774;42.178;26.578;2023-04-23T08:46:53;100202.91;;;17.95;58.82
21234;BME280;10774;42.178;26.578;2023-04-23T08:49:19;100186.84;;;17.73;59.88
21234;BME280;10774;42.178;26.578;2023-04-23T08:51:48;100206.81;;;18.22;58.27
21234;BME280;10774;42.178;26.578;2023-04-23T08:54:26;100179.09;;;18.28;56.45
21234;BME280;10774;42.178;26.578;2023-04-23T08:56:56;100195.97;;;18.61;57.01
21234;BME280;10774;42.178;26.578;2023-04-23T08:59:23;100179.09;;;18.67;56.46
21234;BME280;10774;42.178;26.578;2023-04-23T09:01:49;100196.84;;;18.90;53.74
21234;BME280;10774;42.178;26.578;2023-04-23T09:04:15;100190.84;;;18.77;52.20
21234;BME280;10774;42.178;26.578;2023-04-23T09:06:42;100186.25;;;18.39;51.84
21234;BME280;10774;42.178;26.578;2023-04-23T09:09:08;100180.66;;;18.60;55.09
21234;BME280;10774;42.178;26.578;2023-04-23T09:11:35;100183.72;;;19.23;54.17
21234;BME280;10774;42.178;26.578;2023-04-23T09:14:01;100171.50;;;19.46;51.05
21234;BME280;10774;42.178;26.578;2023-04-23T09:16:27;100177.78;;;19.47;52.49
21234;BME280;10774;42.178;26.578;2023-04-23T09:18:52;100169.53;;;19.66;49.00
21234;BME280;10774;42.178;26.578;2023-04-23T09:21:19;100186.91;;;19.55;48.32
21234;BME280;10774;42.178;26.578;2023-04-23T09:23:44;100191.28;;;19.39;47.19
21234;BME280;10774;42.178;26.578;2023-04-23T09:26:18;100170.81;;;19.72;46.26
21234;BME280;10774;42.178;26.578;2023-04-23T09:28:48;100175.66;;;18.16;50.50
21234;BME280;10774;42.178;26.578;2023-04-23T09:31:16;100180.25;;;17.45;51.86
21234;BME280;10774;42.178;26.578;2023-04-23T09:33:50;100169.19;;;17.58;51.00
21234;BME280;10774;42.178;26.578;2023-04-23T09:36:19;100179.41;;;17.44;52.33
21234;BME280;10774;42.178;26.578;2023-04-23T09:38:45;100172.81;;;18.37;50.94
21234;BME280;10774;42.178;26.578;2023-04-23T09:41:24;100173.78;;;19.04;49.28
21234;BME280;10774;42.178;26.578;2023-04-23T09:43:53;100169.94;;;19.34;48.46
21234;BME280;10774;42.178;26.578;2023-04-23T09:46:40;100163.50;;;20.18;45.02
21234;BME280;10774;42.178;26.578;2023-04-23T09:49:10;100165.56;;;20.69;42.78
21234;BME280;10774;42.178;26.578;2023-04-23T09:51:39;100163.75;;;20.78;43.05
21234;BME280;10774;42.178;26.578;2023-04-23T09:54:16;100155.81;;;20.93;41.77
21234;BME280;10774;42.178;26.578;2023-04-23T09:56:43;100144.59;;;20.96;42.50
21234;BME280;10774;42.178;26.578;2023-04-23T09:59:38;100156.91;;;21.26;42.27
21234;BME280;10774;42.178;26.578;2023-04-23T10:02:05;100156.38;;;21.48;41.70
21234;BME280;10774;42.178;26.578;2023-04-23T10:04:32;100150.03;;;20.70;41.40
21234;BME280;10774;42.178;26.578;2023-04-23T10:06:59;100123.72;;;20.25;43.61
21234;BME280;10774;42.178;26.578;2023-04-23T10:09:26;100140.38;;;20.40;42.26
21234;BME280;10774;42.178;26.578;2023-04-23T10:11:56;100149.09;;;20.43;41.52
21234;BME280;10774;42.178;26.578;2023-04-23T10:14:24;100131.84;;;20.52;41.88
21234;BME280;10774;42.178;26.578;2023-04-23T10:16:51;100143.63;;;20.79;41.49
21234;BME280;10774;42.178;26.578;2023-04-23T10:19:20;100128.28;;;21.30;41.87
21234;BME280;10774;42.178;26.578;2023-04-23T10:22:03;100118.41;;;21.71;41.49
21234;BME280;10774;42.178;26.578;2023-04-23T10:24:36;100125.03;;;22.11;40.31
21234;BME280;10774;42.178;26.578;2023-04-23T10:27:04;100106.25;;;21.57;40.40
21234;BME280;10774;42.178;26.578;2023-04-23T10:29:33;100115.66;;;21.71;40.40
21234;BME280;10774;42.178;26.578;2023-04-23T10:32:00;100115.34;;;21.82;40.58
21234;BME280;10774;42.178;26.578;2023-04-23T10:34:27;100104.13;;;22.02;41.15
21234;BME280;10774;42.178;26.578;2023-04-23T10:36:55;100098.00;;;22.00;40.11
21234;BME280;10774;42.178;26.578;2023-04-23T10:39:23;100118.38;;;20.77;38.32
21234;BME280;10774;42.178;26.578;2023-04-23T10:41:49;100115.63;;;20.95;40.30
21234;BME280;10774;42.178;26.578;2023-04-23T10:44:18;100114.63;;;20.52;38.13
21234;BME280;10774;42.178;26.578;2023-04-23T10:46:56;100102.44;;;20.64;40.06
21234;BME280;10774;42.178;26.578;2023-04-23T10:49:23;100100.75;;;20.89;38.52
21234;BME280;10774;42.178;26.578;2023-04-23T10:52:01;100091.19;;;20.93;39.68
21234;BME280;10774;42.178;26.578;2023-04-23T10:54:31;100092.53;;;21.41;39.78
21234;BME280;10774;42.178;26.578;2023-04-23T10:57:05;100078.63;;;21.77;38.89
21234;BME280;10774;42.178;26.578;2023-04-23T10:59:37;100064.91;;;21.60;39.24
21234;BME280;10774;42.178;26.578;2023-04-23T11:02:11;100087.16;;;21.82;37.80
21234;BME280;10774;42.178;26.578;2023-04-23T11:05:07;100078.53;;;22.19;37.28
21234;BME280;10774;42.178;26.578;2023-04-23T11:07:33;100067.16;;;21.65;37.41
21234;BME280;10774;42.178;26.578;2023-04-23T11:10:05;100073.88;;;22.03;38.03
21234;BME280;10774;42.178;26.578;2023-04-23T11:12:35;100070.34;;;22.43;36.71
21234;BME280;10774;42.178;26.578;2023-04-23T11:15:13;100062.31;;;22.09;38.16
21234;BME280;10774;42.178;26.578;2023-04-23T11:20:18;100054.00;;;23.15;35.83
21234;BME280;10774;42.178;26.578;2023-04-23T11:22:44;100069.34;;;23.25;36.08
21234;BME280;10774;42.178;26.578;2023-04-23T11:25:28;100056.50;;;22.29;34.18
21234;BME280;10774;42.178;26.578;2023-04-23T11:27:55;100064.25;;;20.90;34.01
21234;BME280;10774;42.178;26.578;2023-04-23T11:30:24;100060.03;;;20.70;35.68
21234;BME280;10774;42.178;26.578;2023-04-23T11:32:54;100052.09;;;20.84;37.65
21234;BME280;10774;42.178;26.578;2023-04-23T11:35:23;100061.47;;;20.82;37.56
21234;BME280;10774;42.178;26.578;2023-04-23T11:37:52;100053.53;;;21.73;38.63
21234;BME280;10774;42.178;26.578;2023-04-23T11:40:18;100052.72;;;22.46;38.54
21234;BME280;10774;42.178;26.578;2023-04-23T11:45:21;100055.56;;;23.49;32.99
21234;BME280;10774;42.178;26.578;2023-04-23T11:47:51;100051.78;;;23.50;33.33
21234;BME280;10774;42.178;26.578;2023-04-23T11:50:27;100052.13;;;23.86;34.03
21234;BME280;10774;42.178;26.578;2023-04-23T11:52:53;100052.13;;;24.09;33.65
21234;BME280;10774;42.178;26.578;2023-04-23T11:55:19;100038.41;;;24.09;33.48
21234;BME280;10774;42.178;26.578;2023-04-23T11:57:49;100044.75;;;23.87;32.68
21234;BME280;10774;42.178;26.578;2023-04-23T12:00:19;100039.00;;;22.87;33.40
21234;BME280;10774;42.178;26.578;2023-04-23T12:02:55;100046.53;;;23.80;33.70
21234;BME280;10774;42.178;26.578;2023-04-23T12:05:37;100042.47;;;24.59;33.01
21234;BME280;10774;42.178;26.578;2023-04-23T12:08:10;100044.63;;;24.49;31.24
21234;BME280;10774;42.178;26.578;2023-04-23T12:10:51;100038.44;;;24.85;32.69
21234;BME280;10774;42.178;26.578;2023-04-23T12:13:22;100026.63;;;24.46;32.17
21234;BME280;10774;42.178;26.578;2023-04-23T12:15:49;100039.00;;;24.80;31.96
21234;BME280;10774;42.178;26.578;2023-04-23T12:18:16;100012.84;;;24.55;30.70
21234;BME280;10774;42.178;26.578;2023-04-23T12:20:42;100005.31;;;23.88;31.98
21234;BME280;10774;42.178;26.578;2023-04-23T12:23:07;100020.97;;;24.48;33.37
21234;BME280;10774;42.178;26.578;2023-04-23T12:25:33;100011.84;;;23.56;32.11
21234;BME280;10774;42.178;26.578;2023-04-23T12:27:59;99994.66;;;23.39;34.29
21234;BME280;10774;42.178;26.578;2023-04-23T12:30:28;100000.78;;;23.80;34.52
21234;BME280;10774;42.178;26.578;2023-04-23T12:33:01;99992.28;;;24.50;33.88
21234;BME280;10774;42.178;26.578;2023-04-23T12:35:49;100000.63;;;24.57;33.36
21234;BME280;10774;42.178;26.578;2023-04-23T12:40:47;99982.28;;;25.32;33.05
21234;BME280;10774;42.178;26.578;2023-04-23T12:43:13;99980.69;;;25.95;32.25
21234;BME280;10774;42.178;26.578;2023-04-23T12:45:38;99981.69;;;26.37;31.67